createdAt,value
2023-05-08T00:02:34.734Z,11.70
2023-05-08T00:07:38.611Z,11.70
2023-05-08T00:12:41.455Z,11.60
2023-05-08T00:17:44.623Z,11.50
2023-05-08T00:22:48.911Z,11.40
2023-05-08T00:27:52.193Z,11.40
2023-05-08T00:32:55.090Z,11.40
2023-05-08T00:37:57.827Z,11.30
2023-05-08T00:43:01.070Z,11.30
2023-05-08T00:48:04.755Z,11.30
2023-05-08T00:53:07.962Z,11.20
2023-05-08T00:58:12.349Z,11.10
2023-05-08T01:03:15.910Z,11.00
2023-05-08T01:08:18.968Z,10.90
2023-05-08T01:13:56.052Z,10.70
2023-05-08T01:19:34.189Z,10.60
2023-05-08T01:25:01.094Z,10.50
2023-05-08T01:30:28.267Z,10.30
2023-05-08T01:35:45.469Z,10.20
2023-05-08T01:41:02.469Z,10.20
2023-05-08T01:46:14.792Z,10.10
2023-05-08T01:51:25.702Z,10.10
2023-05-08T01:56:30.302Z,10.00
2023-05-08T02:01:34.917Z,10.00
2023-05-08T02:06:39.018Z,10.00
2023-05-08T02:11:44.595Z,10.00
2023-05-08T02:16:50.842Z,10.10
2023-05-08T02:21:56.203Z,10.10
2023-05-08T02:27:00.969Z,10.20
2023-05-08T02:32:08.783Z,10.20
2023-05-08T02:37:13.317Z,10.30
2023-05-08T02:42:16.728Z,10.30
2023-05-08T02:47:39.439Z,10.40
2023-05-08T02:52:50.879Z,10.40
2023-05-08T02:58:15.893Z,10.50
2023-05-08T03:03:41.077Z,10.60
2023-05-08T03:08:47.551Z,10.70
2023-05-08T03:13:56.262Z,10.70
2023-05-08T03:19:05.567Z,10.80
2023-05-08T03:24:09.825Z,10.80
2023-05-08T03:29:15.689Z,10.90
2023-05-08T03:34:21.864Z,11.00
2023-05-08T03:39:27.020Z,11.10
2023-05-08T03:44:31.051Z,11.10
2023-05-08T03:49:35.237Z,11.20
2023-05-08T03:54:38.204Z,11.20
2023-05-08T03:59:54.734Z,11.20
2023-05-08T04:05:39.884Z,11.30
2023-05-08T04:11:18.148Z,11.40
2023-05-08T04:16:28.687Z,11.40
2023-05-08T04:21:35.744Z,11.50
2023-05-08T04:26:40.930Z,11.50
2023-05-08T04:31:45.546Z,11.50
2023-05-08T04:36:48.727Z,11.50
2023-05-08T04:41:52.751Z,11.50
2023-05-08T04:46:56.127Z,11.50
2023-05-08T04:51:59.326Z,11.60
2023-05-08T04:57:02.483Z,11.60
2023-05-08T05:02:08.401Z,11.70
2023-05-08T05:07:12.156Z,11.80
2023-05-08T05:12:18.220Z,11.90
2023-05-08T05:17:21.725Z,11.90
2023-05-08T05:22:24.721Z,12.00
2023-05-08T05:27:27.777Z,12.00
2023-05-08T05:32:30.827Z,12.10
2023-05-08T05:37:33.624Z,12.10
2023-05-08T05:42:36.517Z,12.10
2023-05-08T05:47:44.081Z,12.20
2023-05-08T05:52:47.327Z,12.20
2023-05-08T05:57:50.571Z,12.20
2023-05-08T06:02:53.821Z,12.30
2023-05-08T06:07:57.394Z,12.40
2023-05-08T06:13:00.770Z,12.50
2023-05-08T06:18:03.736Z,12.50
2023-05-08T06:23:06.998Z,12.60
2023-05-08T06:28:10.072Z,12.60
2023-05-08T06:33:12.893Z,12.70
2023-05-08T06:38:16.444Z,12.70
2023-05-08T06:43:19.371Z,12.90
2023-05-08T06:48:22.477Z,13.10
2023-05-08T06:53:25.570Z,13.30
2023-05-08T06:58:28.572Z,13.50
2023-05-08T07:03:31.332Z,13.70
2023-05-08T07:08:35.155Z,13.80
2023-05-08T07:13:38.027Z,13.80
2023-05-08T07:18:41.305Z,13.90
2023-05-08T07:23:44.427Z,14.00
2023-05-08T07:28:47.495Z,14.10
2023-05-08T07:33:50.509Z,14.10
2023-05-08T07:38:53.612Z,14.20
2023-05-08T07:43:56.756Z,14.50
2023-05-08T07:48:59.573Z,14.70
2023-05-08T07:54:02.635Z,15.10
2023-05-08T07:59:05.785Z,15.30
2023-05-08T08:04:08.945Z,15.60
2023-05-08T08:09:12.401Z,15.70
2023-05-08T08:14:15.212Z,16.00
2023-05-08T08:19:18.149Z,16.20
2023-05-08T08:24:21.187Z,16.30
2023-05-08T08:29:24.326Z,16.20
2023-05-08T08:34:27.544Z,16.20
2023-05-08T08:39:34.489Z,16.30
2023-05-08T08:44:39.254Z,16.60
2023-05-08T08:49:51.192Z,17.00
2023-05-08T08:54:57.082Z,17.20
2023-05-08T09:00:05.433Z,17.30
2023-05-08T09:05:09.889Z,17.40
2023-05-08T09:10:15.810Z,17.30
2023-05-08T09:15:19.851Z,17.40
2023-05-08T09:20:23.437Z,17.70
2023-05-08T09:25:26.590Z,17.80
2023-05-08T09:30:29.459Z,18.00
2023-05-08T09:35:37.244Z,18.00
2023-05-08T09:40:40.296Z,18.20
2023-05-08T09:45:43.369Z,18.40
2023-05-08T09:50:46.485Z,18.60
2023-05-08T09:55:49.486Z,18.80
2023-05-08T10:00:52.406Z,19.10
2023-05-08T10:06:14.028Z,19.00
2023-05-08T10:11:19.804Z,18.90
2023-05-08T10:16:23.335Z,19.10
2023-05-08T10:21:29.677Z,19.30
2023-05-08T10:26:38.171Z,19.30
2023-05-08T10:31:46.126Z,19.40
2023-05-08T10:36:54.124Z,19.60
2023-05-08T10:41:57.798Z,19.80
2023-05-08T10:47:14.817Z,19.60
2023-05-08T10:52:21.525Z,19.70
2023-05-08T10:57:24.907Z,19.80
2023-05-08T11:02:36.998Z,19.90
2023-05-08T11:08:01.197Z,19.90
2023-05-08T11:13:05.612Z,19.80
2023-05-08T11:18:11.852Z,19.90
2023-05-08T11:23:32.289Z,20.10
2023-05-08T11:28:58.962Z,20.40
2023-05-08T11:34:02.074Z,20.30
2023-05-08T11:39:15.588Z,20.60
2023-05-08T11:44:23.916Z,20.80
2023-05-08T11:49:29.471Z,21.10
2023-05-08T11:54:33.872Z,21.20
2023-05-08T11:59:37.695Z,21.00
2023-05-08T12:04:46.264Z,20.90
2023-05-08T12:09:49.637Z,21.00
2023-05-08T12:14:52.760Z,21.40
2023-05-08T12:19:56.763Z,21.50
2023-05-08T12:24:59.804Z,21.60
2023-05-08T12:30:08.279Z,22.10
2023-05-08T12:35:13.519Z,23.00
2023-05-08T12:40:55.753Z,23.40
2023-05-08T12:45:58.863Z,24.10
2023-05-08T12:51:04.545Z,24.90
2023-05-08T12:56:07.652Z,25.00
2023-05-08T13:01:16.581Z,24.80
2023-05-08T13:06:21.815Z,25.10
2023-05-08T13:11:33.480Z,25.10
2023-05-08T13:16:50.517Z,24.90
2023-05-08T13:21:53.684Z,24.80
2023-05-08T13:26:56.607Z,24.80
2023-05-08T13:31:59.669Z,24.40
2023-05-08T13:37:02.840Z,24.00
2023-05-08T13:42:05.847Z,23.50
2023-05-08T13:47:10.326Z,23.20
2023-05-08T13:52:13.478Z,23.20
2023-05-08T13:57:16.662Z,23.00
2023-05-08T14:02:20.102Z,23.10
2023-05-08T14:07:23.277Z,23.10
2023-05-08T14:12:26.212Z,22.90
2023-05-08T14:17:28.995Z,23.60
2023-05-08T14:22:32.072Z,24.10
2023-05-08T14:27:35.151Z,24.60
2023-05-08T14:32:38.210Z,24.70
2023-05-08T14:37:41.370Z,25.10
2023-05-08T14:42:44.490Z,25.30
2023-05-08T14:47:47.599Z,25.00
2023-05-08T14:52:51.100Z,25.20
2023-05-08T14:57:54.177Z,25.30
2023-05-08T15:02:57.362Z,25.40
2023-05-08T15:08:02.705Z,25.10
2023-05-08T15:13:05.821Z,25.10
2023-05-08T15:18:09.387Z,25.20
2023-05-08T15:23:12.517Z,24.90
2023-05-08T15:28:15.455Z,24.40
2023-05-08T15:33:18.634Z,23.90
2023-05-08T15:38:21.615Z,23.60
2023-05-08T15:43:24.631Z,23.30
2023-05-08T15:48:27.960Z,23.20
2023-05-08T15:53:30.975Z,23.40
2023-05-08T15:58:34.674Z,23.20
2023-05-08T16:03:37.494Z,22.80
2023-05-08T16:08:40.648Z,22.50
2023-05-08T16:13:43.804Z,22.10
2023-05-08T16:18:46.745Z,21.80
2023-05-08T16:23:49.886Z,21.60
2023-05-08T16:28:52.874Z,21.50
2023-05-08T16:33:55.894Z,21.30
2023-05-08T16:38:59.024Z,20.80
2023-05-08T16:44:02.122Z,20.50
2023-05-08T16:49:05.110Z,20.20
2023-05-08T16:54:07.876Z,19.80
2023-05-08T16:59:10.877Z,19.30
2023-05-08T17:04:16.396Z,18.60
2023-05-08T17:09:19.376Z,18.20
2023-05-08T17:14:22.352Z,17.80
2023-05-08T17:19:25.920Z,17.50
2023-05-08T17:24:32.566Z,17.10
2023-05-08T17:29:35.876Z,16.70
2023-05-08T17:34:38.698Z,16.40
2023-05-08T17:39:41.619Z,16.20
2023-05-08T17:44:44.634Z,16.00
2023-05-08T17:49:48.003Z,15.70
2023-05-08T17:54:51.806Z,15.40
2023-05-08T17:59:54.905Z,15.20
2023-05-08T18:04:58.040Z,15.10
2023-05-08T18:10:01.306Z,15.00
2023-05-08T18:15:08.253Z,14.80
2023-05-08T18:20:12.048Z,14.70
2023-05-08T18:25:15.635Z,14.60
2023-05-08T18:30:18.677Z,14.40
2023-05-08T18:35:21.826Z,14.30
2023-05-08T18:40:24.913Z,14.10
2023-05-08T18:45:28.166Z,14.10
2023-05-08T18:50:31.131Z,14.00
2023-05-08T18:55:34.151Z,13.90
2023-05-08T19:00:37.178Z,13.80
2023-05-08T19:05:42.220Z,13.70
2023-05-08T19:10:45.888Z,13.60
2023-05-08T19:15:48.946Z,13.50
2023-05-08T19:20:52.429Z,13.40
2023-05-08T19:25:55.279Z,13.20
2023-05-08T19:30:59.051Z,13.10
2023-05-08T19:36:02.213Z,13.00
2023-05-08T19:41:05.158Z,12.90
2023-05-08T19:46:08.480Z,12.80
2023-05-08T19:51:12.645Z,12.70
2023-05-08T19:56:15.661Z,12.60
2023-05-08T20:01:18.853Z,12.60
2023-05-08T20:06:21.982Z,12.60
2023-05-08T20:11:25.001Z,12.50
2023-05-08T20:16:28.173Z,12.40
2023-05-08T20:21:32.489Z,12.40
2023-05-08T20:26:35.710Z,12.40
2023-05-08T20:31:40.933Z,12.30
2023-05-08T20:36:45.284Z,12.30
2023-05-08T20:41:48.379Z,12.20
2023-05-08T20:46:51.886Z,12.10
2023-05-08T20:51:54.894Z,12.10
2023-05-08T20:56:58.085Z,12.00
2023-05-08T21:02:01.441Z,11.90
2023-05-08T21:07:04.470Z,11.90
2023-05-08T21:12:07.582Z,11.80
2023-05-08T21:17:10.853Z,11.80
2023-05-08T21:22:14.446Z,11.70
2023-05-08T21:27:17.668Z,11.60
2023-05-08T21:32:20.621Z,11.60
2023-05-08T21:37:23.885Z,11.50
2023-05-08T21:42:26.820Z,11.40
2023-05-08T21:47:29.796Z,11.30
2023-05-08T21:52:32.771Z,11.20
2023-05-08T21:57:36.143Z,11.10
2023-05-08T22:02:39.269Z,11.10
2023-05-08T22:07:42.263Z,11.00
2023-05-08T22:12:45.313Z,10.90
2023-05-08T22:17:49.706Z,10.90
2023-05-08T22:22:52.782Z,10.90
2023-05-08T22:27:55.829Z,10.90
2023-05-08T22:33:00.315Z,11.00
2023-05-08T22:38:03.334Z,11.00
2023-05-08T22:43:06.736Z,11.00
2023-05-08T22:48:10.541Z,10.80
2023-05-08T22:53:13.842Z,10.80
2023-05-08T22:58:17.112Z,10.70
2023-05-08T23:03:20.306Z,10.60
2023-05-08T23:08:23.442Z,10.50
2023-05-08T23:13:26.452Z,10.40
2023-05-08T23:18:29.462Z,10.40
2023-05-08T23:23:33.408Z,10.30
2023-05-08T23:28:36.905Z,10.20
2023-05-08T23:33:40.026Z,10.20
2023-05-08T23:38:43.106Z,10.10
2023-05-08T23:43:46.136Z,10.10
2023-05-08T23:48:49.083Z,10.10
2023-05-08T23:53:52.044Z,10.00
2023-05-08T23:58:55.029Z,10.10
